createdAt,value
2018-11-01T00:02:24.779Z,99803.70
2018-11-01T00:04:53.385Z,99807.20
2018-11-01T00:07:22.020Z,99802.54
2018-11-01T00:09:50.612Z,99805.06
2018-11-01T00:12:19.241Z,99811.64
2018-11-01T00:14:47.896Z,99804.06
2018-11-01T00:17:16.584Z,99800.23
2018-11-01T00:19:45.184Z,99804.58
2018-11-01T00:22:13.979Z,99800.83
2018-11-01T00:24:42.753Z,99803.03
2018-11-01T00:27:11.390Z,99798.06
2018-11-01T00:29:40.015Z,99790.06
2018-11-01T00:32:09.091Z,99795.30
2018-11-01T00:34:37.705Z,99791.88
2018-11-01T00:37:06.495Z,99797.88
2018-11-01T00:39:35.155Z,99795.80
2018-11-01T00:42:03.772Z,99785.91
2018-11-01T00:44:32.409Z,99786.07
2018-11-01T00:47:01.035Z,99781.73
2018-11-01T00:49:29.768Z,99790.92
2018-11-01T00:51:58.435Z,99798.67
2018-11-01T00:54:27.057Z,99792.80
2018-11-01T00:56:55.697Z,99781.91
2018-11-01T00:59:24.306Z,99785.48
2018-11-01T01:01:52.917Z,99782.23
2018-11-01T01:04:21.555Z,99777.52
2018-11-01T01:06:50.221Z,99775.78
2018-11-01T01:09:18.976Z,99769.10
2018-11-01T01:11:47.605Z,99772.83
2018-11-01T01:14:16.266Z,99758.61
2018-11-01T01:16:44.929Z,99754.80
2018-11-01T01:19:13.544Z,99749.61
2018-11-01T01:21:42.204Z,99752.07
2018-11-01T01:24:10.835Z,99742.48
2018-11-01T01:26:39.465Z,99744.56
2018-11-01T01:29:08.137Z,99726.59
2018-11-01T01:31:36.753Z,99730.39
2018-11-01T01:34:05.980Z,99715.84
2018-11-01T01:36:34.675Z,99709.86
2018-11-01T01:39:03.490Z,99702.88
2018-11-01T01:41:32.110Z,99705.95
2018-11-01T01:44:00.724Z,99705.08
2018-11-01T01:46:29.311Z,99697.19
2018-11-01T01:48:57.901Z,99701.89
2018-11-01T01:51:26.512Z,99695.98
2018-11-01T01:53:55.126Z,99687.41
2018-11-01T01:56:23.732Z,99695.29
2018-11-01T01:58:52.376Z,99691.07
2018-11-01T02:01:21.001Z,99686.40
2018-11-01T02:03:49.631Z,99689.20
2018-11-01T02:06:18.278Z,99690.04
2018-11-01T02:08:46.903Z,99676.90
2018-11-01T02:11:15.567Z,99676.56
2018-11-01T02:13:44.227Z,99680.68
2018-11-01T02:16:12.861Z,99667.41
2018-11-01T02:18:41.654Z,99655.77
2018-11-01T02:21:16.569Z,99643.82
2018-11-01T02:23:45.193Z,99640.69
2018-11-01T02:26:13.811Z,99633.41
2018-11-01T02:28:42.469Z,99639.62
2018-11-01T02:31:11.101Z,99641.48
2018-11-01T02:33:39.748Z,99643.41
2018-11-01T02:36:08.494Z,99638.70
2018-11-01T02:38:37.164Z,99638.11
2018-11-01T02:41:05.730Z,99638.76
2018-11-01T02:43:34.329Z,99646.70
2018-11-01T02:46:02.968Z,99646.85
2018-11-01T02:48:31.600Z,99648.65
2018-11-01T02:51:00.248Z,99644.48
2018-11-01T02:53:28.881Z,99653.67
2018-11-01T02:55:57.522Z,99662.08
2018-11-01T02:58:26.187Z,99665.73
2018-11-01T03:00:54.848Z,99657.50
2018-11-01T03:03:23.484Z,99666.31
2018-11-01T03:05:52.104Z,99666.27
2018-11-01T03:08:21.218Z,99667.55
2018-11-01T03:10:49.866Z,99667.32
2018-11-01T03:13:18.512Z,99667.47
2018-11-01T03:15:47.156Z,99673.41
2018-11-01T03:18:15.792Z,99681.61
2018-11-01T03:20:44.406Z,99678.25
2018-11-01T03:23:13.125Z,99672.69
2018-11-01T03:25:41.725Z,99684.73
2018-11-01T03:28:10.370Z,99678.69
2018-11-01T03:30:38.971Z,99677.64
2018-11-01T03:33:07.573Z,99669.83
2018-11-01T03:35:36.284Z,99668.66
2018-11-01T03:38:04.896Z,99673.25
2018-11-01T03:40:33.676Z,99672.27
2018-11-01T03:43:02.379Z,99661.17
2018-11-01T03:45:31.051Z,99653.42
2018-11-01T03:47:59.597Z,99660.34
2018-11-01T03:50:28.224Z,99655.67
2018-11-01T03:52:56.848Z,99657.17
2018-11-01T03:55:25.738Z,99654.55
2018-11-01T03:57:54.338Z,99644.14
2018-11-01T04:00:22.928Z,99647.08
2018-11-01T04:02:51.600Z,99650.63
2018-11-01T04:05:20.211Z,99646.83
2018-11-01T04:07:48.838Z,99634.50
2018-11-01T04:10:17.567Z,99631.81
2018-11-01T04:12:46.239Z,99631.20
2018-11-01T04:15:15.428Z,99618.21
2018-11-01T04:17:43.977Z,99606.59
2018-11-01T04:20:13.545Z,99601.54
2018-11-01T04:22:42.793Z,99599.98
2018-11-01T04:25:11.452Z,99600.78
2018-11-01T04:27:40.085Z,99596.54
2018-11-01T04:30:09.182Z,99587.77
2018-11-01T04:32:37.772Z,99594.56
2018-11-01T04:35:07.113Z,99591.32
2018-11-01T04:37:35.782Z,99589.45
2018-11-01T04:40:04.490Z,99589.45
2018-11-01T04:42:33.124Z,99587.97
2018-11-01T04:45:01.743Z,99589.26
2018-11-01T04:47:30.393Z,99588.91
2018-11-01T04:49:58.987Z,99589.16
2018-11-01T04:52:27.654Z,99585.44
2018-11-01T04:54:56.279Z,99578.58
2018-11-01T04:57:24.892Z,99575.11
2018-11-01T04:59:53.539Z,99571.20
2018-11-01T05:02:22.191Z,99568.92
2018-11-01T05:04:50.850Z,99561.28
2018-11-01T05:07:19.463Z,99545.81
2018-11-01T05:09:48.080Z,99556.21
2018-11-01T05:12:16.724Z,99555.95
2018-11-01T05:14:45.348Z,99556.23
2018-11-01T05:17:14.005Z,99555.81
2018-11-01T05:19:42.625Z,99557.05
2018-11-01T05:22:11.340Z,99564.44
2018-11-01T05:24:39.989Z,99554.53
2018-11-01T05:27:08.637Z,99553.56
2018-11-01T05:29:37.283Z,99553.56
2018-11-01T05:32:05.868Z,99553.20
2018-11-01T05:34:34.533Z,99545.78
2018-11-01T05:37:03.166Z,99549.88
2018-11-01T05:39:31.770Z,99553.34
2018-11-01T05:42:00.424Z,99548.20
2018-11-01T05:44:29.261Z,99539.34
2018-11-01T05:46:57.882Z,99538.86
2018-11-01T05:49:26.530Z,99524.93
2018-11-01T05:51:55.157Z,99534.34
2018-11-01T05:54:23.862Z,99546.64
2018-11-01T05:56:52.480Z,99560.22
2018-11-01T05:59:22.054Z,99553.42
2018-11-01T06:01:52.650Z,99552.69
2018-11-01T06:04:21.295Z,99539.62
2018-11-01T06:06:49.974Z,99529.11
2018-11-01T06:09:23.794Z,99552.69
2018-11-01T06:11:52.446Z,99576.58
2018-11-01T06:14:21.053Z,99573.52
2018-11-01T06:16:49.970Z,99572.36
2018-11-01T06:19:18.590Z,99583.86
2018-11-01T06:21:47.220Z,99586.28
2018-11-01T06:24:16.179Z,99585.17
2018-11-01T06:26:45.449Z,99575.89
2018-11-01T06:29:14.107Z,99587.24
2018-11-01T06:31:42.745Z,99585.97
2018-11-01T06:34:31.462Z,99586.69
2018-11-01T06:37:00.368Z,99580.52
2018-11-01T06:39:29.015Z,99583.29
2018-11-01T06:41:57.626Z,99587.80
2018-11-01T06:44:26.323Z,99581.28
2018-11-01T06:46:54.889Z,99588.45
2018-11-01T06:49:23.549Z,99570.33
2018-11-01T06:51:52.217Z,99565.83
2018-11-01T06:54:20.898Z,99546.11
2018-11-01T06:56:49.594Z,99548.83
2018-11-01T06:59:18.400Z,99556.56
2018-11-01T07:01:46.801Z,99555.28
2018-11-01T07:04:15.437Z,99548.96
2018-11-01T07:06:44.050Z,99549.94
2018-11-01T07:09:13.923Z,99557.84
2018-11-01T07:11:42.908Z,99559.42
2018-11-01T07:14:11.589Z,99576.14
2018-11-01T07:16:40.278Z,99577.17
2018-11-01T07:19:09.835Z,99585.67
2018-11-01T07:21:38.808Z,99573.70
2018-11-01T07:24:07.447Z,99581.06
2018-11-01T07:26:36.157Z,99574.00
2018-11-01T07:29:04.734Z,99592.50
2018-11-01T07:31:33.419Z,99598.09
2018-11-01T07:34:02.059Z,99596.20
2018-11-01T07:36:30.758Z,99614.33
2018-11-01T07:38:59.360Z,99623.31
2018-11-01T07:41:28.018Z,99623.75
2018-11-01T07:43:56.675Z,99623.22
2018-11-01T07:46:25.321Z,99620.27
2018-11-01T07:48:53.956Z,99626.11
2018-11-01T07:51:22.610Z,99617.71
2018-11-01T07:53:51.219Z,99606.77
2018-11-01T07:56:20.118Z,99611.48
2018-11-01T07:58:48.806Z,99623.60
2018-11-01T08:01:17.429Z,99617.53
2018-11-01T08:03:46.082Z,99623.75
2018-11-01T08:06:14.786Z,99621.33
2018-11-01T08:08:43.406Z,99634.14
2018-11-01T08:11:12.162Z,99624.75
2018-11-01T08:13:40.810Z,99620.20
2018-11-01T08:16:09.561Z,99620.16
2018-11-01T08:18:38.378Z,99618.30
2018-11-01T08:21:07.322Z,99625.36
2018-11-01T08:23:36.066Z,99625.98
2018-11-01T08:26:04.771Z,99615.09
2018-11-01T08:28:33.446Z,99620.38
2018-11-01T08:31:02.125Z,99606.75
2018-11-01T08:33:37.973Z,99625.04
2018-11-01T08:36:06.888Z,99614.52
2018-11-01T08:38:35.782Z,99615.70
2018-11-01T08:41:04.533Z,99622.83
2018-11-01T08:43:33.280Z,99628.08
2018-11-01T08:46:02.099Z,99626.31
2018-11-01T08:48:31.154Z,99622.27
2018-11-01T08:50:59.887Z,99625.65
2018-11-01T08:53:34.908Z,99616.92
2018-11-01T08:56:06.417Z,99616.63
2018-11-01T08:58:35.168Z,99622.64
2018-11-01T09:01:04.272Z,99623.70
2018-11-01T09:03:33.150Z,99627.13
2018-11-01T09:06:01.915Z,99622.61
2018-11-01T09:08:30.711Z,99624.77
2018-11-01T09:10:59.630Z,99631.89
2018-11-01T09:13:28.431Z,99626.61
2018-11-01T09:15:57.123Z,99625.48
2018-11-01T09:18:25.895Z,99623.98
2018-11-01T09:20:54.712Z,99640.06
2018-11-01T09:23:23.643Z,99633.59
2018-11-01T09:25:52.571Z,99637.23
2018-11-01T09:28:21.454Z,99651.05
2018-11-01T09:30:50.299Z,99640.67
2018-11-01T09:33:25.867Z,99627.30
2018-11-01T09:35:54.646Z,99628.95
2018-11-01T09:38:23.392Z,99623.22
2018-11-01T09:40:52.205Z,99616.43
2018-11-01T09:43:20.845Z,99611.78
2018-11-01T09:45:49.511Z,99616.98
2018-11-01T09:48:18.158Z,99596.02
2018-11-01T09:50:46.796Z,99590.46
2018-11-01T09:53:15.459Z,99585.37
2018-11-01T09:55:44.287Z,99582.31
2018-11-01T09:58:12.858Z,99583.67
2018-11-01T10:00:41.919Z,99577.13
2018-11-01T10:03:10.611Z,99586.31
2018-11-01T10:05:39.373Z,99581.40
2018-11-01T10:08:08.078Z,99580.69
2018-11-01T10:10:37.012Z,99578.91
2018-11-01T10:13:05.754Z,99574.12
2018-11-01T10:15:34.593Z,99575.50
2018-11-01T10:18:03.673Z,99582.06
2018-11-01T10:20:31.917Z,99595.67
2018-11-01T10:23:00.730Z,99591.78
2018-11-01T10:25:29.500Z,99592.18
2018-11-01T10:27:58.349Z,99591.84
2018-11-01T10:30:27.073Z,99592.23
2018-11-01T10:32:56.151Z,99594.84
2018-11-01T10:35:24.891Z,99579.86
2018-11-01T10:37:53.674Z,99588.08
2018-11-01T10:40:22.504Z,99578.16
2018-11-01T10:42:51.238Z,99575.63
2018-11-01T10:45:19.910Z,99579.68
2018-11-01T10:47:48.770Z,99583.06
2018-11-01T10:50:18.803Z,99568.80
2018-11-01T10:52:47.684Z,99566.42
2018-11-01T10:55:16.983Z,99573.00
2018-11-01T10:57:45.812Z,99563.07
2018-11-01T11:00:19.754Z,99568.34
2018-11-01T11:02:49.736Z,99572.55
2018-11-01T11:05:20.068Z,99572.91
2018-11-01T11:07:49.264Z,99563.98
2018-11-01T11:10:18.774Z,99568.17
2018-11-01T11:12:47.624Z,99556.45
2018-11-01T11:15:16.496Z,99547.05
2018-11-01T11:17:45.287Z,99544.45
2018-11-01T11:20:14.256Z,99544.47
2018-11-01T11:22:42.852Z,99547.27
2018-11-01T11:25:12.542Z,99555.28
2018-11-01T11:27:41.466Z,99564.22
2018-11-01T11:30:11.680Z,99558.13
2018-11-01T11:32:40.993Z,99571.77
2018-11-01T11:35:10.671Z,99563.77
2018-11-01T11:37:39.396Z,99561.54
2018-11-01T11:40:09.646Z,99545.16
2018-11-01T11:42:38.494Z,99550.65
2018-11-01T11:45:08.042Z,99556.14
2018-11-01T11:47:36.772Z,99553.39
2018-11-01T11:50:06.301Z,99552.09
2018-11-01T11:52:35.019Z,99546.45
2018-11-01T11:55:03.660Z,99536.37
2018-11-01T11:57:33.109Z,99546.66
2018-11-01T12:00:01.802Z,99549.55
2018-11-01T12:02:30.667Z,99547.36
2018-11-01T12:04:59.346Z,99532.70
2018-11-01T12:07:28.029Z,99539.49
2018-11-01T12:09:56.738Z,99553.09
2018-11-01T12:12:30.605Z,99547.97
2018-11-01T12:14:59.387Z,99563.38
2018-11-01T12:17:28.162Z,99570.00
2018-11-01T12:20:00.071Z,99569.46
2018-11-01T12:22:28.981Z,99571.16
2018-11-01T12:24:57.813Z,99572.55
2018-11-01T12:27:26.656Z,99581.14
2018-11-01T12:29:55.418Z,99586.18
2018-11-01T12:32:24.270Z,99595.50
2018-11-01T12:34:53.090Z,99592.30
2018-11-01T12:37:21.869Z,99589.92
2018-11-01T12:39:54.100Z,99598.25
2018-11-01T12:42:23.280Z,99599.39
2018-11-01T12:44:52.486Z,99584.67
2018-11-01T12:47:21.238Z,99572.70
2018-11-01T12:49:50.724Z,99566.52
2018-11-01T12:52:19.856Z,99556.45
2018-11-01T12:54:48.603Z,99560.48
2018-11-01T12:57:17.552Z,99574.49
2018-11-01T12:59:46.423Z,99556.34
2018-11-01T13:02:18.269Z,99566.27
2018-11-01T13:04:47.769Z,99559.87
2018-11-01T13:07:17.751Z,99558.78
2018-11-01T13:09:46.944Z,99562.67
2018-11-01T13:12:15.639Z,99564.77
2018-11-01T13:14:46.935Z,99555.05
2018-11-01T13:17:17.419Z,99568.95
2018-11-01T13:19:46.315Z,99557.04
2018-11-01T13:22:15.065Z,99554.60
2018-11-01T13:24:43.990Z,99573.59
2018-11-01T13:27:12.903Z,99581.84
2018-11-01T13:29:41.704Z,99591.86
2018-11-01T13:32:10.627Z,99595.11
2018-11-01T13:34:39.636Z,99599.48
2018-11-01T13:37:08.483Z,99614.27
2018-11-01T13:39:37.352Z,99624.50
2018-11-01T13:42:06.306Z,99622.89
2018-11-01T13:44:35.078Z,99625.41
2018-11-01T13:47:04.290Z,99624.77
2018-11-01T13:49:32.966Z,99638.27
2018-11-01T13:52:01.799Z,99643.53
2018-11-01T13:54:30.857Z,99639.84
2018-11-01T13:56:59.594Z,99640.91
2018-11-01T13:59:28.481Z,99632.48
2018-11-01T14:01:57.507Z,99625.88
2018-11-01T14:04:26.353Z,99614.34
2018-11-01T14:06:55.062Z,99621.64
2018-11-01T14:09:23.801Z,99620.31
2018-11-01T14:11:52.647Z,99619.30
2018-11-01T14:14:22.029Z,99614.74
2018-11-01T14:16:50.589Z,99610.59
2018-11-01T14:19:19.257Z,99605.45
2018-11-01T14:21:48.091Z,99616.84
2018-11-01T14:24:16.976Z,99616.45
2018-11-01T14:26:45.918Z,99611.80
2018-11-01T14:29:14.755Z,99604.75
2018-11-01T14:31:43.590Z,99588.85
2018-11-01T14:34:12.365Z,99593.36
2018-11-01T14:36:41.274Z,99592.83
2018-11-01T14:39:12.567Z,99585.55
2018-11-01T14:41:41.445Z,99588.43
2018-11-01T14:44:10.208Z,99589.81
2018-11-01T14:46:44.422Z,99583.77
2018-11-01T14:49:13.235Z,99576.40
2018-11-01T14:51:42.049Z,99583.08
2018-11-01T14:54:11.691Z,99587.45
2018-11-01T14:56:41.112Z,99577.41
2018-11-01T14:59:10.270Z,99588.45
2018-11-01T15:01:37.529Z,99588.50
2018-11-01T15:04:06.224Z,99584.79
2018-11-01T15:06:34.933Z,99572.27
2018-11-01T15:09:05.495Z,99580.95
2018-11-01T15:11:34.333Z,99578.44
2018-11-01T15:14:03.087Z,99572.17
2018-11-01T15:16:31.878Z,99581.61
2018-11-01T15:19:01.841Z,99575.48
2018-11-01T15:21:30.528Z,99588.98
2018-11-01T15:23:59.238Z,99581.28
2018-11-01T15:26:27.869Z,99576.03
2018-11-01T15:28:56.514Z,99579.27
2018-11-01T15:31:25.170Z,99588.11
2018-11-01T15:33:53.820Z,99583.80
2018-11-01T15:36:22.510Z,99581.58
2018-11-01T15:38:51.206Z,99578.55
2018-11-01T15:41:20.769Z,99596.75
2018-11-01T15:43:49.490Z,99580.80
2018-11-01T15:46:18.658Z,99580.97
2018-11-01T15:48:47.405Z,99582.02
2018-11-01T15:51:16.181Z,99595.18
2018-11-01T15:53:45.178Z,99600.75
2018-11-01T15:56:14.178Z,99589.40
2018-11-01T15:58:42.982Z,99591.86
2018-11-01T16:01:12.108Z,99591.54
2018-11-01T16:03:40.886Z,99581.77
2018-11-01T16:06:09.748Z,99580.03
2018-11-01T16:08:38.503Z,99574.70
2018-11-01T16:11:07.227Z,99568.49
2018-11-01T16:13:35.947Z,99576.85
2018-11-01T16:16:04.847Z,99579.11
2018-11-01T16:18:33.576Z,99575.80
2018-11-01T16:21:02.336Z,99577.05
2018-11-01T16:23:31.046Z,99584.12
2018-11-01T16:25:59.967Z,99586.70
2018-11-01T16:28:28.857Z,99572.23
2018-11-01T16:30:57.509Z,99585.64
2018-11-01T16:33:26.251Z,99587.45
2018-11-01T16:35:54.911Z,99586.12
2018-11-01T16:38:23.590Z,99583.13
2018-11-01T16:40:52.273Z,99569.66
2018-11-01T16:43:22.480Z,99571.19
2018-11-01T16:45:51.196Z,99559.60
2018-11-01T16:48:20.294Z,99565.48
2018-11-01T16:50:48.946Z,99572.50
2018-11-01T16:53:18.254Z,99577.26
2018-11-01T16:55:46.909Z,99572.69
2018-11-01T16:58:15.643Z,99561.77
2018-11-01T17:00:44.343Z,99563.91
2018-11-01T17:03:13.123Z,99567.45
2018-11-01T17:05:42.533Z,99573.50
2018-11-01T17:08:11.416Z,99568.85
2018-11-01T17:10:40.722Z,99569.05
2018-11-01T17:13:09.756Z,99552.30
2018-11-01T17:15:38.687Z,99553.55
2018-11-01T17:18:07.560Z,99549.72
2018-11-01T17:20:36.432Z,99556.92
2018-11-01T17:23:05.350Z,99546.52
2018-11-01T17:25:34.279Z,99550.54
2018-11-01T17:28:03.101Z,99528.75
2018-11-01T17:30:31.904Z,99529.08
2018-11-01T17:33:00.847Z,99524.84
2018-11-01T17:35:29.552Z,99519.46
2018-11-01T17:37:58.246Z,99516.03
2018-11-01T17:40:26.957Z,99506.67
2018-11-01T17:42:55.705Z,99505.42
2018-11-01T17:45:24.582Z,99495.05
2018-11-01T17:47:53.259Z,99478.39
2018-11-01T17:50:22.323Z,99488.13
2018-11-01T17:52:51.568Z,99476.25
2018-11-01T17:55:20.539Z,99474.84
2018-11-01T17:57:49.603Z,99478.44
2018-11-01T18:00:19.208Z,99495.73
2018-11-01T18:02:48.153Z,99488.03
2018-11-01T18:05:16.947Z,99486.52
2018-11-01T18:07:45.821Z,99484.42
2018-11-01T18:10:14.675Z,99483.69
2018-11-01T18:12:43.483Z,99466.84
2018-11-01T18:15:12.202Z,99457.91
2018-11-01T18:17:40.912Z,99454.66
2018-11-01T18:20:11.189Z,99453.75
2018-11-01T18:22:40.001Z,99448.96
2018-11-01T18:25:10.359Z,99438.39
2018-11-01T18:27:39.087Z,99418.06
2018-11-01T18:30:10.026Z,99420.00
2018-11-01T18:32:39.045Z,99436.05
2018-11-01T18:35:08.532Z,99433.66
2018-11-01T18:37:37.290Z,99445.37
2018-11-01T18:40:06.612Z,99451.22
2018-11-01T18:42:35.423Z,99444.11
2018-11-01T18:45:04.264Z,99447.58
2018-11-01T18:47:33.664Z,99453.55
2018-11-01T18:50:02.561Z,99461.77
2018-11-01T18:52:32.759Z,99467.73
2018-11-01T18:55:01.549Z,99476.60
2018-11-01T18:57:30.499Z,99482.06
2018-11-01T18:59:59.397Z,99474.66
2018-11-01T19:02:28.598Z,99480.47
2018-11-01T19:04:57.352Z,99475.09
2018-11-01T19:07:26.250Z,99481.48
2018-11-01T19:09:54.915Z,99484.97
2018-11-01T19:12:23.614Z,99488.78
2018-11-01T19:14:52.317Z,99486.42
2018-11-01T19:19:55.016Z,99496.27
2018-11-01T19:22:23.888Z,99514.54
2018-11-01T19:24:52.578Z,99521.17
2018-11-01T19:27:21.844Z,99535.90
2018-11-01T19:29:50.332Z,99550.06
2018-11-01T19:32:19.138Z,99575.61
2018-11-01T19:34:47.897Z,99594.50
2018-11-01T19:37:16.812Z,99599.36
2018-11-01T19:39:45.746Z,99595.59
2018-11-01T19:42:14.648Z,99573.54
2018-11-01T19:44:43.484Z,99566.86
2018-11-01T19:47:12.324Z,99565.40
2018-11-01T19:49:41.215Z,99566.25
2018-11-01T19:52:09.876Z,99580.39
2018-11-01T19:54:38.617Z,99569.84
2018-11-01T19:57:07.290Z,99575.00
2018-11-01T19:59:35.976Z,99579.50
2018-11-01T20:02:04.658Z,99580.66
2018-11-01T20:04:33.362Z,99564.10
2018-11-01T20:07:02.096Z,99562.41
2018-11-01T20:09:30.771Z,99560.88
2018-11-01T20:11:59.439Z,99559.78
2018-11-01T20:14:28.475Z,99560.19
2018-11-01T20:16:57.127Z,99545.96
2018-11-01T20:19:25.820Z,99545.89
2018-11-01T20:21:54.446Z,99548.17
2018-11-01T20:24:23.046Z,99537.55
2018-11-01T20:26:51.676Z,99545.18
2018-11-01T20:29:20.357Z,99547.19
2018-11-01T20:31:55.792Z,99547.31
2018-11-01T20:34:25.059Z,99558.23
2018-11-01T20:36:53.713Z,99554.41
2018-11-01T20:39:23.300Z,99543.02
2018-11-01T20:41:52.031Z,99535.31
2018-11-01T20:44:20.807Z,99526.94
2018-11-01T20:46:49.542Z,99526.02
2018-11-01T20:49:18.221Z,99522.59
2018-11-01T20:51:46.825Z,99516.08
2018-11-01T20:54:15.593Z,99508.41
2018-11-01T20:56:44.313Z,99501.77
2018-11-01T20:59:13.013Z,99494.84
2018-11-01T21:01:41.701Z,99494.06
2018-11-01T21:04:10.786Z,99486.98
2018-11-01T21:06:39.569Z,99481.45
2018-11-01T21:09:10.889Z,99483.82
2018-11-01T21:11:40.009Z,99481.79
2018-11-01T21:14:08.646Z,99486.45
2018-11-01T21:16:37.972Z,99481.91
2018-11-01T21:19:07.768Z,99480.73
2018-11-01T21:21:39.757Z,99477.71
2018-11-01T21:24:08.521Z,99470.95
2018-11-01T21:26:37.346Z,99481.26
2018-11-01T21:29:06.228Z,99475.02
2018-11-01T21:31:34.862Z,99480.92
2018-11-01T21:34:03.640Z,99474.21
2018-11-01T21:36:32.432Z,99479.19
2018-11-01T21:39:02.284Z,99483.27
2018-11-01T21:41:31.342Z,99475.13
2018-11-01T21:44:00.269Z,99487.50
2018-11-01T21:46:29.553Z,99493.13
2018-11-01T21:48:58.663Z,99496.05
2018-11-01T21:51:27.707Z,99498.16
2018-11-01T21:53:57.425Z,99494.08
2018-11-01T21:56:26.182Z,99496.48
2018-11-01T21:58:54.998Z,99514.08
2018-11-01T22:01:23.715Z,99528.25
2018-11-01T22:03:52.394Z,99525.91
2018-11-01T22:06:21.457Z,99528.58
2018-11-01T22:08:50.128Z,99534.78
2018-11-01T22:11:19.043Z,99539.43
2018-11-01T22:13:47.730Z,99535.95
2018-11-01T22:16:16.604Z,99532.95
2018-11-01T22:18:45.438Z,99540.67
2018-11-01T22:21:14.506Z,99545.95
2018-11-01T22:23:43.222Z,99552.10
2018-11-01T22:26:11.917Z,99562.67
2018-11-01T22:28:41.081Z,99573.19
2018-11-01T22:31:09.768Z,99576.88
2018-11-01T22:33:38.534Z,99578.28
2018-11-01T22:36:07.373Z,99562.57
2018-11-01T22:38:36.270Z,99560.00
2018-11-01T22:41:04.917Z,99555.62
2018-11-01T22:43:33.661Z,99563.16
2018-11-01T22:46:02.353Z,99549.39
2018-11-01T22:48:31.142Z,99546.12
2018-11-01T22:50:59.895Z,99535.80
2018-11-01T22:53:34.014Z,99541.15
2018-11-01T22:56:02.625Z,99552.09
2018-11-01T22:58:31.750Z,99560.33
2018-11-01T23:01:00.427Z,99569.34
2018-11-01T23:03:29.238Z,99570.94
2018-11-01T23:05:57.860Z,99573.54
2018-11-01T23:08:26.467Z,99567.28
2018-11-01T23:10:55.278Z,99566.73
2018-11-01T23:13:23.891Z,99564.77
2018-11-01T23:15:52.644Z,99564.58
2018-11-01T23:18:21.283Z,99561.79
2018-11-01T23:20:49.981Z,99568.73
2018-11-01T23:23:18.594Z,99565.55
2018-11-01T23:25:47.249Z,99576.13
2018-11-01T23:28:15.838Z,99574.23
2018-11-01T23:30:49.769Z,99575.30
2018-11-01T23:33:18.366Z,99580.59
2018-11-01T23:35:47.060Z,99577.23
2018-11-01T23:38:20.905Z,99574.88
2018-11-01T23:40:54.555Z,99574.72
2018-11-01T23:43:28.264Z,99572.60
2018-11-01T23:46:01.989Z,99566.11
2018-11-01T23:48:29.683Z,99572.58
2018-11-01T23:51:02.359Z,99566.04
2018-11-01T23:53:32.506Z,99572.08
2018-11-01T23:56:01.126Z,99573.74
2018-11-01T23:58:29.744Z,99581.30
